Terminal Aerodrome Forecast
Issued by NWS Sterling, VA

Current Version | Previous Version | Text Only | Print | Product List | Glossary Off
Versions: 1 2 3 4 5 6 7 8 9 10 11 12

000
FTUS41 KLWX 301135
TAFMRB
TAF
KMRB 301135Z 3012/3112 20006KT P6SM OVC040
     FM301400 26009KT P6SM BKN050
     FM301600 28013G20KT P6SM SCT050
     FM310000 29009KT P6SM SCT050
     FM310600 VRB04KT P6SM BKN050=

USA.gov is the U.S. government's official web portal to all federal, state and local government web resources and services.